createdAt,value
2019-02-05T00:02:00.081Z,0.20
2019-02-05T00:05:22.706Z,0.10
2019-02-05T00:08:44.953Z,0.20
2019-02-05T00:12:08.424Z,0.20
2019-02-05T00:15:30.948Z,0.20
2019-02-05T00:18:53.249Z,0.10
2019-02-05T00:22:15.736Z,0.00
2019-02-05T00:25:38.521Z,0.00
2019-02-05T00:29:01.348Z,0.00
2019-02-05T00:32:23.983Z,0.00
2019-02-05T00:35:46.740Z,0.00
2019-02-05T00:39:09.773Z,0.00
2019-02-05T00:42:31.985Z,0.00
2019-02-05T00:45:54.373Z,0.00
2019-02-05T00:49:16.849Z,0.00
2019-02-05T00:52:39.329Z,0.00
2019-02-05T00:56:01.929Z,0.10
2019-02-05T00:59:24.468Z,0.10
2019-02-05T01:02:47.127Z,0.00
2019-02-05T01:06:09.986Z,0.00
2019-02-05T01:09:32.801Z,0.00
2019-02-05T01:12:55.906Z,0.00
2019-02-05T01:16:18.732Z,0.00
2019-02-05T01:19:41.244Z,0.00
2019-02-05T01:23:03.882Z,0.00
2019-02-05T01:26:31.311Z,0.10
2019-02-05T01:29:54.638Z,0.10
2019-02-05T01:33:17.721Z,0.10
2019-02-05T01:36:40.223Z,0.10
2019-02-05T01:40:02.735Z,0.10
2019-02-05T01:43:25.128Z,0.10
2019-02-05T01:46:47.737Z,0.20
2019-02-05T01:50:10.812Z,0.20
2019-02-05T01:53:33.269Z,0.20
2019-02-05T01:56:55.647Z,0.20
2019-02-05T02:00:21.341Z,0.20
2019-02-05T02:03:43.847Z,0.20
2019-02-05T02:07:07.124Z,0.20
2019-02-05T02:10:30.240Z,0.20
2019-02-05T02:13:52.629Z,0.30
2019-02-05T02:17:15.101Z,0.30
2019-02-05T02:20:37.723Z,0.30
2019-02-05T02:24:00.507Z,0.30
2019-02-05T02:27:23.181Z,0.30
2019-02-05T02:30:46.244Z,0.40
2019-02-05T02:34:09.233Z,0.40
2019-02-05T02:37:31.788Z,0.40
2019-02-05T02:40:54.496Z,0.40
2019-02-05T02:44:16.622Z,0.40
2019-02-05T02:47:39.125Z,0.40
2019-02-05T02:51:01.325Z,0.40
2019-02-05T02:54:23.972Z,0.50
2019-02-05T02:57:47.408Z,0.50
2019-02-05T03:01:10.361Z,0.50
2019-02-05T03:04:33.359Z,0.50
2019-02-05T03:07:56.053Z,0.50
2019-02-05T03:11:18.609Z,0.50
2019-02-05T03:14:41.543Z,0.50
2019-02-05T03:18:04.683Z,0.50
2019-02-05T03:21:27.821Z,0.60
2019-02-05T03:24:50.444Z,0.50
2019-02-05T03:28:13.170Z,0.60
2019-02-05T03:31:35.694Z,0.50
2019-02-05T03:34:58.584Z,0.50
2019-02-05T03:38:20.992Z,0.50
2019-02-05T03:41:43.297Z,0.50
2019-02-05T03:45:05.979Z,0.50
2019-02-05T03:48:29.162Z,0.50
2019-02-05T03:52:03.925Z,0.50
2019-02-05T03:56:09.909Z,0.50
2019-02-05T03:59:54.192Z,0.50
2019-02-05T04:04:06.142Z,0.50
2019-02-05T04:08:06.827Z,0.50
2019-02-05T04:11:44.498Z,0.60
2019-02-05T04:15:30.622Z,0.60
2019-02-05T04:19:24.601Z,0.60
2019-02-05T04:22:56.654Z,0.60
2019-02-05T04:26:36.220Z,0.70
2019-02-05T04:30:35.006Z,0.70
2019-02-05T04:34:10.570Z,0.60
2019-02-05T04:38:00.657Z,0.70
2019-02-05T04:42:09.024Z,0.70
2019-02-05T04:45:47.406Z,0.70
2019-02-05T04:49:42.899Z,0.60
2019-02-05T04:54:01.377Z,0.60
2019-02-05T04:58:02.612Z,0.50
2019-02-05T05:02:05.356Z,0.40
2019-02-05T05:05:45.640Z,0.30
2019-02-05T05:09:29.833Z,0.10
2019-02-05T05:12:52.497Z,0.00
2019-02-05T05:16:14.882Z,0.00
2019-02-05T05:19:37.324Z,-0.10
2019-02-05T05:23:00.022Z,0.00
2019-02-05T05:26:22.263Z,0.00
2019-02-05T05:29:45.297Z,0.10
2019-02-05T05:33:07.981Z,0.10
2019-02-05T05:36:30.206Z,0.10
2019-02-05T05:39:52.753Z,0.20
2019-02-05T05:43:15.428Z,0.10
2019-02-05T05:46:38.099Z,0.20
2019-02-05T05:50:00.634Z,0.20
2019-02-05T05:53:23.053Z,0.20
2019-02-05T05:56:45.675Z,0.20
2019-02-05T06:00:13.653Z,0.20
2019-02-05T06:03:36.079Z,0.20
2019-02-05T06:06:58.886Z,0.30
2019-02-05T06:10:21.299Z,0.30
2019-02-05T06:13:43.823Z,0.30
2019-02-05T06:17:06.212Z,0.40
2019-02-05T06:20:28.676Z,0.40
2019-02-05T06:23:51.572Z,0.40
2019-02-05T06:27:14.486Z,0.40
2019-02-05T06:30:37.073Z,0.40
2019-02-05T06:34:00.025Z,0.40
2019-02-05T06:37:22.536Z,0.50
2019-02-05T06:40:44.983Z,0.50
2019-02-05T06:44:07.912Z,0.60
2019-02-05T06:47:30.347Z,0.60
2019-02-05T06:50:52.497Z,0.60
2019-02-05T06:54:15.149Z,0.60
2019-02-05T06:57:37.613Z,0.60
2019-02-05T07:01:00.324Z,0.70
2019-02-05T07:04:23.292Z,0.70
2019-02-05T07:07:46.035Z,0.70
2019-02-05T07:11:09.392Z,0.80
2019-02-05T07:14:32.718Z,1.00
2019-02-05T07:17:55.356Z,1.00
2019-02-05T07:21:17.841Z,1.10
2019-02-05T07:24:40.460Z,1.20
2019-02-05T07:28:03.588Z,1.20
2019-02-05T07:31:25.899Z,1.20
2019-02-05T07:34:48.750Z,1.20
2019-02-05T07:38:11.422Z,1.30
2019-02-05T07:41:33.768Z,1.30
2019-02-05T07:44:56.345Z,1.40
2019-02-05T07:48:18.954Z,1.30
2019-02-05T07:51:41.864Z,1.40
2019-02-05T07:55:05.004Z,1.50
2019-02-05T07:58:27.569Z,1.60
2019-02-05T08:01:50.336Z,1.50
2019-02-05T08:05:16.112Z,1.60
2019-02-05T08:08:38.690Z,1.60
2019-02-05T08:12:01.122Z,1.70
2019-02-05T08:15:28.442Z,1.70
2019-02-05T08:18:51.058Z,1.70
2019-02-05T08:22:13.936Z,1.70
2019-02-05T08:25:36.654Z,1.80
2019-02-05T08:28:59.186Z,1.90
2019-02-05T08:32:22.269Z,2.00
2019-02-05T08:35:45.105Z,2.00
2019-02-05T08:39:09.926Z,2.00
2019-02-05T08:42:32.677Z,2.00
2019-02-05T08:45:56.992Z,2.00
2019-02-05T08:49:19.481Z,2.00
2019-02-05T08:52:42.164Z,2.00
2019-02-05T08:56:05.212Z,2.00
2019-02-05T08:59:27.771Z,2.10
2019-02-05T09:02:50.634Z,2.10
2019-02-05T09:06:13.248Z,2.10
2019-02-05T09:09:35.610Z,2.10
2019-02-05T09:12:58.688Z,2.20
2019-02-05T09:16:21.324Z,2.20
2019-02-05T09:19:43.417Z,2.20
2019-02-05T09:23:06.645Z,2.20
2019-02-05T09:26:28.669Z,2.30
2019-02-05T09:29:51.014Z,2.30
2019-02-05T09:33:13.910Z,2.30
2019-02-05T09:36:36.319Z,2.30
2019-02-05T09:39:58.765Z,2.30
2019-02-05T09:43:21.601Z,2.40
2019-02-05T09:46:43.924Z,2.40
2019-02-05T09:50:08.356Z,2.50
2019-02-05T09:53:30.766Z,2.60
2019-02-05T09:56:53.536Z,2.60
2019-02-05T10:00:24.998Z,2.60
2019-02-05T10:03:48.132Z,2.70
2019-02-05T10:07:10.648Z,2.70
2019-02-05T10:10:33.558Z,2.70
2019-02-05T10:13:56.388Z,2.70
2019-02-05T10:17:19.164Z,2.70
2019-02-05T10:20:42.102Z,2.80
2019-02-05T10:24:05.526Z,2.80
2019-02-05T10:27:28.303Z,2.80
2019-02-05T10:30:50.954Z,2.90
2019-02-05T10:34:13.423Z,2.90
2019-02-05T10:37:36.193Z,3.00
2019-02-05T10:40:58.897Z,3.00
2019-02-05T10:44:21.325Z,3.00
2019-02-05T10:47:43.737Z,3.10
2019-02-05T10:51:06.320Z,3.20
2019-02-05T10:54:28.816Z,3.30
2019-02-05T10:57:51.531Z,3.40
2019-02-05T11:01:14.273Z,3.30
2019-02-05T11:04:36.842Z,3.40
2019-02-05T11:07:59.409Z,3.40
2019-02-05T11:11:21.487Z,3.30
2019-02-05T11:14:43.975Z,3.40
2019-02-05T11:18:09.102Z,3.40
2019-02-05T11:21:31.337Z,3.40
2019-02-05T11:24:54.066Z,3.50
2019-02-05T11:28:16.572Z,3.50
2019-02-05T11:31:39.378Z,3.60
2019-02-05T11:35:02.088Z,3.60
2019-02-05T11:38:24.533Z,3.60
2019-02-05T11:41:47.155Z,3.70
2019-02-05T11:45:11.504Z,3.70
2019-02-05T11:48:34.244Z,3.70
2019-02-05T11:51:56.710Z,3.70
2019-02-05T11:55:21.063Z,3.70
2019-02-05T11:58:43.454Z,3.80
2019-02-05T12:02:06.612Z,3.90
2019-02-05T12:05:29.449Z,3.80
2019-02-05T12:08:52.603Z,3.80
2019-02-05T12:12:15.187Z,3.70
2019-02-05T12:15:37.749Z,3.80
2019-02-05T12:19:00.428Z,3.80
2019-02-05T12:22:23.141Z,3.90
2019-02-05T12:25:45.994Z,3.80
2019-02-05T12:29:08.821Z,3.90
2019-02-05T12:32:31.318Z,3.90
2019-02-05T12:35:53.927Z,4.00
2019-02-05T12:39:18.564Z,4.10
2019-02-05T12:42:40.891Z,4.00
2019-02-05T12:46:03.379Z,4.00
2019-02-05T12:49:25.930Z,4.10
2019-02-05T12:52:49.913Z,4.10
2019-02-05T12:56:12.628Z,4.10
2019-02-05T12:59:35.114Z,4.20
2019-02-05T13:02:57.708Z,4.20
2019-02-05T13:06:20.321Z,4.20
2019-02-05T13:09:42.698Z,4.20
2019-02-05T13:13:06.899Z,4.30
2019-02-05T13:16:29.765Z,4.40
2019-02-05T13:19:52.396Z,4.40
2019-02-05T13:23:15.072Z,4.30
2019-02-05T13:26:37.590Z,4.30
2019-02-05T13:30:00.206Z,4.30
2019-02-05T13:33:22.624Z,4.30
2019-02-05T13:36:45.161Z,4.20
2019-02-05T13:40:08.993Z,4.20
2019-02-05T13:43:31.175Z,4.20
2019-02-05T13:46:53.749Z,4.20
2019-02-05T13:50:19.413Z,4.10
2019-02-05T13:53:42.064Z,4.10
2019-02-05T13:57:05.026Z,4.10
2019-02-05T14:00:39.363Z,4.10
2019-02-05T14:04:02.400Z,4.20
2019-02-05T14:07:24.855Z,4.10
2019-02-05T14:10:49.225Z,4.10
2019-02-05T14:14:11.699Z,4.10
2019-02-05T14:17:34.161Z,4.10
2019-02-05T14:20:56.332Z,4.10
2019-02-05T14:24:18.953Z,4.10
2019-02-05T14:27:41.393Z,4.10
2019-02-05T14:31:03.950Z,4.10
2019-02-05T14:34:26.574Z,4.10
2019-02-05T14:37:49.684Z,4.10
2019-02-05T14:41:12.136Z,4.20
2019-02-05T14:44:36.994Z,4.20
2019-02-05T14:47:59.378Z,4.10
2019-02-05T14:51:22.068Z,4.20
2019-02-05T14:54:44.613Z,4.20
2019-02-05T14:58:09.676Z,4.20
2019-02-05T15:01:42.467Z,4.20
2019-02-05T15:04:56.536Z,4.10
2019-02-05T15:08:19.732Z,4.10
2019-02-05T15:11:42.466Z,4.00
2019-02-05T15:15:07.453Z,4.00
2019-02-05T15:18:29.789Z,4.00
2019-02-05T15:21:52.637Z,4.00
2019-02-05T15:25:15.409Z,4.00
2019-02-05T15:28:37.833Z,4.00
2019-02-05T15:32:00.268Z,4.00
2019-02-05T15:35:22.874Z,4.00
2019-02-05T15:38:45.657Z,3.90
2019-02-05T15:42:08.124Z,3.90
2019-02-05T15:45:30.499Z,3.90
2019-02-05T15:48:52.821Z,3.80
2019-02-05T15:52:15.211Z,3.90
2019-02-05T15:55:37.769Z,3.90
2019-02-05T15:59:00.118Z,3.90
2019-02-05T16:02:23.182Z,3.80
2019-02-05T16:05:46.413Z,3.80
2019-02-05T16:09:10.182Z,3.80
2019-02-05T16:12:32.776Z,3.80
2019-02-05T16:15:55.686Z,3.80
2019-02-05T16:19:18.289Z,3.80
2019-02-05T16:22:40.933Z,3.70
2019-02-05T16:26:03.761Z,3.70
2019-02-05T16:29:26.443Z,3.70
2019-02-05T16:32:49.491Z,3.70
2019-02-05T16:36:12.242Z,3.70
2019-02-05T16:39:34.856Z,3.80
2019-02-05T16:42:57.278Z,3.80
2019-02-05T16:46:19.696Z,3.80
2019-02-05T16:49:42.123Z,3.80
2019-02-05T16:53:06.249Z,3.80
2019-02-05T16:56:28.663Z,3.80
2019-02-05T16:59:51.564Z,3.80
2019-02-05T17:03:24.689Z,3.80
2019-02-05T17:06:47.800Z,3.80
2019-02-05T17:10:12.211Z,3.80
2019-02-05T17:13:34.907Z,3.70
2019-02-05T17:16:57.480Z,3.70
2019-02-05T17:20:25.282Z,3.70
2019-02-05T17:23:47.272Z,3.70
2019-02-05T17:27:09.661Z,3.70
2019-02-05T17:30:34.125Z,3.70
2019-02-05T17:33:56.509Z,3.70
2019-02-05T17:37:19.100Z,3.70
2019-02-05T17:40:42.129Z,3.70
2019-02-05T17:44:04.727Z,3.60
2019-02-05T17:47:27.161Z,3.60
2019-02-05T17:50:49.687Z,3.60
2019-02-05T17:54:12.105Z,3.60
2019-02-05T17:57:34.759Z,3.60
2019-02-05T18:01:05.313Z,3.60
2019-02-05T18:04:28.219Z,3.60
2019-02-05T18:07:50.871Z,3.60
2019-02-05T18:11:13.286Z,3.60
2019-02-05T18:14:36.248Z,3.60
2019-02-05T18:17:59.268Z,3.60
2019-02-05T18:21:21.598Z,3.60
2019-02-05T18:24:43.676Z,3.60
2019-02-05T18:28:06.382Z,3.60
2019-02-05T18:31:29.060Z,3.60
2019-02-05T18:34:51.484Z,3.60
2019-02-05T18:38:15.384Z,3.60
2019-02-05T18:41:37.767Z,3.50
2019-02-05T18:45:00.317Z,3.60
2019-02-05T18:48:22.856Z,3.60
2019-02-05T18:51:45.508Z,3.60
2019-02-05T18:55:10.575Z,3.50
2019-02-05T18:58:33.500Z,3.50
2019-02-05T19:01:56.078Z,3.50
2019-02-05T19:05:18.649Z,3.50
2019-02-05T19:08:41.140Z,3.50
2019-02-05T19:12:05.032Z,3.50
2019-02-05T19:15:29.737Z,3.50
2019-02-05T19:18:52.370Z,3.50
2019-02-05T19:22:14.602Z,3.50
2019-02-05T19:25:58.678Z,3.50
2019-02-05T19:29:21.129Z,3.50
2019-02-05T19:32:44.064Z,3.50
2019-02-05T19:36:06.533Z,3.50
2019-02-05T19:39:28.975Z,3.50
2019-02-05T19:42:51.638Z,3.50
2019-02-05T19:46:33.078Z,3.50
2019-02-05T19:49:58.091Z,3.50
2019-02-05T19:53:21.306Z,3.50
2019-02-05T19:56:44.684Z,3.50
2019-02-05T20:00:09.506Z,3.40
2019-02-05T20:03:38.939Z,3.40
2019-02-05T20:06:56.725Z,3.40
2019-02-05T20:10:19.000Z,3.40
2019-02-05T20:13:41.573Z,3.40
2019-02-05T20:17:04.641Z,3.30
2019-02-05T20:20:27.371Z,3.40
2019-02-05T20:23:49.927Z,3.40
2019-02-05T20:27:13.221Z,3.30
2019-02-05T20:30:36.073Z,3.30
2019-02-05T20:33:58.400Z,3.30
2019-02-05T20:37:21.123Z,3.20
2019-02-05T20:40:43.669Z,3.20
2019-02-05T20:44:06.236Z,3.20
2019-02-05T20:47:28.728Z,3.20
2019-02-05T20:50:50.941Z,3.20
2019-02-05T20:54:13.480Z,3.20
2019-02-05T20:57:35.689Z,3.10
2019-02-05T21:00:58.326Z,3.10
2019-02-05T21:04:20.508Z,3.20
2019-02-05T21:07:43.458Z,3.10
2019-02-05T21:11:05.985Z,3.20
2019-02-05T21:14:28.570Z,3.10
2019-02-05T21:17:51.448Z,3.10
2019-02-05T21:21:14.089Z,3.10
2019-02-05T21:24:36.528Z,3.10
2019-02-05T21:27:59.268Z,3.10
2019-02-05T21:31:22.263Z,3.10
2019-02-05T21:34:44.944Z,3.10
2019-02-05T21:38:07.752Z,3.10
2019-02-05T21:41:30.268Z,3.10
2019-02-05T21:44:52.474Z,3.10
2019-02-05T21:48:15.245Z,3.10
2019-02-05T21:51:40.945Z,3.10
2019-02-05T21:55:02.863Z,3.10
2019-02-05T21:58:25.557Z,3.10
2019-02-05T22:01:48.114Z,3.10
2019-02-05T22:05:11.252Z,3.10
2019-02-05T22:08:33.667Z,3.10
2019-02-05T22:11:56.039Z,3.10
2019-02-05T22:15:18.956Z,3.10
2019-02-05T22:18:41.409Z,3.10
2019-02-05T22:22:04.523Z,3.10
2019-02-05T22:25:27.840Z,3.10
2019-02-05T22:28:50.272Z,3.00
2019-02-05T22:32:12.513Z,3.00
2019-02-05T22:35:58.487Z,3.00
2019-02-05T22:39:25.784Z,2.90
2019-02-05T22:42:48.352Z,2.90
2019-02-05T22:46:10.973Z,2.90
2019-02-05T22:49:34.102Z,2.80
2019-02-05T22:53:03.537Z,2.80
2019-02-05T22:56:26.225Z,2.80
2019-02-05T22:59:49.491Z,2.80
2019-02-05T23:03:13.590Z,2.70
2019-02-05T23:07:06.908Z,2.80
2019-02-05T23:10:45.650Z,2.80
2019-02-05T23:14:09.800Z,2.80
2019-02-05T23:17:32.747Z,2.80
2019-02-05T23:20:56.507Z,2.80
2019-02-05T23:24:19.701Z,2.80
2019-02-05T23:27:42.489Z,2.90
2019-02-05T23:31:05.372Z,2.90
2019-02-05T23:34:28.277Z,2.90
2019-02-05T23:37:51.493Z,2.80
2019-02-05T23:41:15.172Z,2.80
2019-02-05T23:44:44.443Z,2.80
2019-02-05T23:48:06.987Z,2.80
2019-02-05T23:51:31.786Z,2.80
2019-02-05T23:54:54.431Z,2.80
2019-02-05T23:58:17.437Z,2.80
